createdAt,value
2018-12-17T00:02:36.448Z,72.70
2018-12-17T00:05:41.667Z,71.90
2018-12-17T00:08:45.058Z,71.90
2018-12-17T00:11:45.503Z,71.90
2018-12-17T00:14:44.868Z,71.90
2018-12-17T00:17:44.860Z,72.00
2018-12-17T00:20:44.977Z,71.90
2018-12-17T00:23:45.784Z,71.90
2018-12-17T00:26:45.693Z,72.00
2018-12-17T00:29:46.110Z,72.00
2018-12-17T00:32:46.074Z,72.10
2018-12-17T00:35:45.603Z,72.00
2018-12-17T00:38:45.600Z,72.10
2018-12-17T00:41:45.647Z,72.20
2018-12-17T00:44:44.922Z,72.00
2018-12-17T00:47:46.443Z,72.00
2018-12-17T00:50:46.371Z,72.00
2018-12-17T00:53:45.905Z,72.00
2018-12-17T00:56:45.278Z,72.10
2018-12-17T00:59:45.343Z,72.10
2018-12-17T01:02:44.637Z,72.10
2018-12-17T01:05:44.047Z,72.10
2018-12-17T01:08:44.845Z,72.20
2018-12-17T01:11:44.289Z,72.10
2018-12-17T01:14:44.333Z,72.00
2018-12-17T01:17:44.747Z,72.10
2018-12-17T01:20:49.663Z,72.10
2018-12-17T01:23:50.254Z,72.20
2018-12-17T01:26:49.776Z,72.20
2018-12-17T01:29:50.738Z,72.10
2018-12-17T01:32:50.327Z,72.10
2018-12-17T01:35:49.675Z,72.10
2018-12-17T01:38:49.105Z,72.20
2018-12-17T01:41:48.538Z,72.10
2018-12-17T01:44:49.172Z,72.10
2018-12-17T01:47:48.443Z,72.80
2018-12-17T01:50:48.287Z,72.20
2018-12-17T01:53:47.643Z,72.20
2018-12-17T01:56:46.951Z,72.20
2018-12-17T01:59:46.927Z,72.20
2018-12-17T02:02:46.744Z,72.20
2018-12-17T02:05:46.251Z,72.20
2018-12-17T02:08:46.708Z,72.20
2018-12-17T02:11:47.167Z,72.20
2018-12-17T02:14:46.473Z,72.20
2018-12-17T02:17:46.051Z,72.20
2018-12-17T02:20:46.139Z,72.50
2018-12-17T02:23:46.178Z,72.20
2018-12-17T02:26:46.365Z,72.20
2018-12-17T02:29:45.737Z,72.20
2018-12-17T02:32:46.355Z,72.20
2018-12-17T02:35:46.672Z,73.00
2018-12-17T02:38:47.240Z,72.20
2018-12-17T02:41:53.608Z,72.20
2018-12-17T02:44:53.823Z,72.30
2018-12-17T02:47:55.286Z,73.00
2018-12-17T02:50:55.912Z,72.20
2018-12-17T02:53:56.184Z,72.20
2018-12-17T02:56:55.608Z,72.30
2018-12-17T03:00:00.084Z,72.20
2018-12-17T03:02:59.466Z,72.30
2018-12-17T03:05:59.460Z,72.30
2018-12-17T03:08:59.506Z,72.20
2018-12-17T03:11:59.351Z,72.20
2018-12-17T03:14:59.282Z,72.30
2018-12-17T03:17:58.640Z,72.20
2018-12-17T03:20:58.696Z,72.30
2018-12-17T03:23:58.380Z,72.30
2018-12-17T03:26:57.698Z,72.20
2018-12-17T03:29:57.274Z,72.20
2018-12-17T03:32:57.040Z,72.30
2018-12-17T03:35:56.452Z,72.30
2018-12-17T03:38:56.229Z,72.40
2018-12-17T03:42:00.083Z,72.30
2018-12-17T03:45:06.369Z,72.30
2018-12-17T03:48:05.651Z,73.00
2018-12-17T03:51:05.776Z,72.40
2018-12-17T03:54:05.948Z,72.70
2018-12-17T03:57:05.478Z,72.40
2018-12-17T04:00:07.131Z,72.40
2018-12-17T04:03:06.574Z,72.30
2018-12-17T04:06:06.450Z,72.40
2018-12-17T04:09:09.558Z,72.30
2018-12-17T04:12:09.322Z,72.40
2018-12-17T04:15:08.736Z,72.40
2018-12-17T04:18:08.270Z,72.30
2018-12-17T04:21:08.480Z,72.30
2018-12-17T04:24:08.158Z,72.40
2018-12-17T04:27:09.453Z,72.40
2018-12-17T04:30:09.047Z,72.40
2018-12-17T04:33:09.386Z,72.40
2018-12-17T04:36:08.749Z,72.30
2018-12-17T04:39:08.272Z,72.40
2018-12-17T04:42:07.735Z,72.50
2018-12-17T04:45:07.787Z,72.30
2018-12-17T04:48:08.599Z,72.30
2018-12-17T04:51:08.079Z,72.30
2018-12-17T04:54:07.437Z,72.40
2018-12-17T04:57:07.265Z,72.40
2018-12-17T05:00:08.278Z,73.10
2018-12-17T05:03:08.209Z,72.40
2018-12-17T05:06:08.136Z,72.20
2018-12-17T05:09:08.720Z,72.20
2018-12-17T05:12:09.259Z,72.30
2018-12-17T05:15:09.494Z,72.80
2018-12-17T05:18:09.014Z,73.10
2018-12-17T05:21:09.482Z,72.40
2018-12-17T05:24:08.859Z,72.30
2018-12-17T05:27:08.240Z,72.30
2018-12-17T05:30:12.689Z,72.30
2018-12-17T05:33:13.945Z,72.40
2018-12-17T05:36:13.552Z,72.30
2018-12-17T05:39:13.029Z,72.30
2018-12-17T05:42:15.588Z,72.40
2018-12-17T05:45:15.835Z,72.30
2018-12-17T05:48:17.296Z,72.30
2018-12-17T05:51:16.665Z,72.20
2018-12-17T05:54:17.202Z,72.20
2018-12-17T05:57:16.539Z,72.20
2018-12-17T06:00:16.614Z,72.30
2018-12-17T06:03:16.060Z,72.50
2018-12-17T06:06:15.515Z,72.30
2018-12-17T06:09:15.948Z,72.40
2018-12-17T06:12:16.768Z,72.30
2018-12-17T06:15:16.296Z,72.40
2018-12-17T06:18:15.569Z,72.40
2018-12-17T06:21:15.122Z,73.10
2018-12-17T06:24:14.621Z,72.60
2018-12-17T06:27:14.953Z,72.30
2018-12-17T06:30:17.322Z,72.40
2018-12-17T06:33:17.256Z,72.30
2018-12-17T06:36:17.005Z,72.40
2018-12-17T06:39:17.308Z,72.30
2018-12-17T06:42:17.412Z,72.40
2018-12-17T06:45:16.705Z,72.40
2018-12-17T06:48:17.325Z,72.40
2018-12-17T06:51:17.662Z,72.30
2018-12-17T06:54:17.271Z,72.20
2018-12-17T06:57:18.480Z,72.20
2018-12-17T07:00:17.733Z,72.20
2018-12-17T07:03:18.412Z,72.20
2018-12-17T07:08:52.479Z,72.30
2018-12-17T07:11:52.327Z,72.40
2018-12-17T07:14:53.004Z,72.30
2018-12-17T07:17:52.565Z,72.30
2018-12-17T07:20:52.788Z,72.30
2018-12-17T07:23:53.085Z,72.40
2018-12-17T07:26:54.301Z,72.30
2018-12-17T07:29:53.901Z,72.20
2018-12-17T07:32:54.274Z,72.10
2018-12-17T07:35:56.699Z,72.80
2018-12-17T07:38:57.049Z,72.20
2018-12-17T07:41:57.561Z,72.20
2018-12-17T07:44:57.095Z,72.60
2018-12-17T07:47:56.559Z,72.20
2018-12-17T07:50:56.104Z,72.30
2018-12-17T07:53:56.025Z,72.20
2018-12-17T07:56:55.766Z,72.90
2018-12-17T07:59:56.900Z,72.30
2018-12-17T08:02:57.748Z,72.80
2018-12-17T08:05:57.106Z,72.20
2018-12-17T08:08:56.538Z,72.10
2018-12-17T08:11:56.052Z,72.20
2018-12-17T08:14:55.479Z,72.20
2018-12-17T08:18:34.057Z,72.20
2018-12-17T08:21:34.856Z,72.30
2018-12-17T08:24:34.958Z,72.30
2018-12-17T08:27:35.204Z,72.20
2018-12-17T08:30:34.730Z,72.70
2018-12-17T08:33:35.184Z,72.20
2018-12-17T08:36:35.391Z,72.20
2018-12-17T08:39:35.143Z,72.30
2018-12-17T08:42:34.568Z,72.30
2018-12-17T08:45:34.273Z,72.20
2018-12-17T08:48:34.425Z,72.20
2018-12-17T08:51:34.827Z,72.20
2018-12-17T08:54:36.844Z,72.20
2018-12-17T08:57:38.045Z,72.20
2018-12-17T09:00:38.728Z,72.20
2018-12-17T09:03:43.296Z,72.10
2018-12-17T09:06:44.084Z,72.10
2018-12-17T09:09:44.268Z,72.00
2018-12-17T09:12:43.727Z,72.10
2018-12-17T09:15:44.296Z,72.00
2018-12-17T09:18:49.773Z,72.10
2018-12-17T09:21:56.151Z,72.00
2018-12-17T09:24:57.418Z,72.10
2018-12-17T09:27:57.618Z,72.00
2018-12-17T09:31:03.475Z,72.10
2018-12-17T09:34:03.488Z,72.90
2018-12-17T09:37:03.586Z,72.10
2018-12-17T09:40:03.226Z,72.10
2018-12-17T09:43:11.943Z,72.10
2018-12-17T09:46:11.158Z,72.10
2018-12-17T09:49:17.424Z,72.10
2018-12-17T09:52:17.552Z,72.20
2018-12-17T09:55:17.110Z,72.10
2018-12-17T09:58:17.607Z,72.10
2018-12-17T10:01:22.702Z,72.20
2018-12-17T10:04:37.860Z,72.20
2018-12-17T10:07:37.298Z,72.40
2018-12-17T10:10:37.455Z,72.30
2018-12-17T10:13:43.021Z,72.30
2018-12-17T10:16:43.773Z,72.30
2018-12-17T10:19:43.854Z,72.30
2018-12-17T10:22:45.299Z,72.40
2018-12-17T10:25:44.819Z,72.40
2018-12-17T10:28:48.202Z,72.40
2018-12-17T10:31:47.608Z,72.50
2018-12-17T10:34:49.558Z,72.50
2018-12-17T10:37:49.614Z,72.50
2018-12-17T10:40:49.923Z,72.70
2018-12-17T10:43:49.151Z,72.40
2018-12-17T10:46:49.665Z,72.40
2018-12-17T10:49:49.143Z,72.30
2018-12-17T10:52:50.458Z,72.30
2018-12-17T10:55:51.910Z,72.20
2018-12-17T10:58:51.418Z,72.20
2018-12-17T11:01:58.942Z,72.30
2018-12-17T11:05:07.807Z,72.30
2018-12-17T11:08:07.002Z,72.40
2018-12-17T11:11:09.422Z,72.50
2018-12-17T11:14:08.905Z,72.50
2018-12-17T11:17:14.544Z,72.60
2018-12-17T11:20:14.082Z,72.60
2018-12-17T11:23:18.608Z,72.70
2018-12-17T11:26:17.808Z,72.70
2018-12-17T11:29:20.925Z,72.60
2018-12-17T11:32:20.606Z,72.60
2018-12-17T11:35:20.937Z,72.60
2018-12-17T11:38:20.473Z,72.60
2018-12-17T11:41:19.618Z,72.70
2018-12-17T11:47:45.105Z,72.60
2018-12-17T11:50:50.188Z,72.60
2018-12-17T11:53:49.871Z,72.60
2018-12-17T11:59:02.018Z,72.60
2018-12-17T12:02:05.072Z,72.60
2018-12-17T12:05:04.970Z,72.70
2018-12-17T12:08:05.292Z,72.70
2018-12-17T12:11:04.714Z,72.70
2018-12-17T12:14:08.432Z,72.70
2018-12-17T12:17:07.835Z,72.80
2018-12-17T12:20:07.271Z,72.70
2018-12-17T12:23:07.564Z,72.90
2018-12-17T12:26:06.893Z,73.00
2018-12-17T12:29:06.245Z,72.80
2018-12-17T12:32:05.539Z,72.90
2018-12-17T12:35:05.604Z,73.00
2018-12-17T12:38:09.589Z,73.00
2018-12-17T12:41:08.905Z,72.90
2018-12-17T12:44:14.496Z,73.20
2018-12-17T12:47:13.910Z,73.10
2018-12-17T12:50:17.355Z,73.00
2018-12-17T12:53:17.017Z,72.70
2018-12-17T12:56:20.623Z,72.90
2018-12-17T12:59:20.088Z,73.00
2018-12-17T13:02:25.039Z,73.10
2018-12-17T13:05:24.235Z,73.10
2018-12-17T13:08:27.709Z,73.20
2018-12-17T13:11:26.912Z,73.90
2018-12-17T13:14:26.536Z,73.20
2018-12-17T13:17:28.280Z,73.20
2018-12-17T13:20:28.451Z,73.10
2018-12-17T13:23:47.199Z,73.10
2018-12-17T13:26:48.973Z,73.20
2018-12-17T13:29:49.128Z,73.10
2018-12-17T13:32:50.959Z,73.10
2018-12-17T13:35:51.934Z,73.20
2018-12-17T13:38:53.429Z,73.20
2018-12-17T13:41:52.878Z,73.10
2018-12-17T13:45:05.239Z,73.30
2018-12-17T13:48:08.331Z,73.20
2018-12-17T13:51:12.975Z,73.30
2018-12-17T13:54:12.211Z,73.20
2018-12-17T13:57:22.380Z,73.40
2018-12-17T14:00:22.391Z,73.30
2018-12-17T14:03:22.370Z,73.40
2018-12-17T14:06:28.847Z,73.40
2018-12-17T14:09:34.483Z,73.50
2018-12-17T14:12:34.061Z,73.40
2018-12-17T14:15:38.686Z,73.40
2018-12-17T14:18:44.212Z,73.40
2018-12-17T14:21:49.106Z,73.50
2018-12-17T14:24:48.359Z,73.50
2018-12-17T14:27:49.706Z,73.60
2018-12-17T14:30:50.616Z,73.60
2018-12-17T14:33:55.671Z,73.60
2018-12-17T14:36:55.281Z,73.60
2018-12-17T14:39:54.647Z,73.70
2018-12-17T14:42:59.981Z,73.70
2018-12-17T14:45:59.511Z,73.70
2018-12-17T14:48:59.554Z,73.80
2018-12-17T14:51:59.848Z,73.80
2018-12-17T14:54:59.835Z,73.80
2018-12-17T14:57:59.542Z,73.80
2018-12-17T15:00:59.638Z,73.80
2018-12-17T15:03:59.720Z,73.80
2018-12-17T15:07:01.508Z,73.80
2018-12-17T15:10:03.814Z,73.90
2018-12-17T15:13:04.728Z,74.00
2018-12-17T15:16:05.013Z,74.00
2018-12-17T15:19:05.117Z,74.00
2018-12-17T15:22:05.623Z,74.00
2018-12-17T15:25:09.884Z,74.00
2018-12-17T15:28:09.375Z,74.00
2018-12-17T15:31:14.704Z,74.00
2018-12-17T15:34:15.279Z,74.10
2018-12-17T15:37:14.624Z,74.20
2018-12-17T15:40:14.106Z,74.10
2018-12-17T15:43:16.393Z,74.20
2018-12-17T15:46:15.856Z,74.20
2018-12-17T15:49:16.562Z,74.30
2018-12-17T15:52:15.789Z,74.20
2018-12-17T15:55:16.167Z,74.20
2018-12-17T15:58:15.631Z,74.30
2018-12-17T16:01:18.943Z,74.20
2018-12-17T16:04:20.178Z,74.30
2018-12-17T16:07:20.113Z,74.30
2018-12-17T16:10:20.567Z,74.40
2018-12-17T16:13:19.821Z,74.40
2018-12-17T16:16:21.283Z,74.50
2018-12-17T16:19:21.264Z,75.00
2018-12-17T16:22:25.157Z,74.50
2018-12-17T16:38:24.678Z,74.50
2018-12-17T16:41:25.108Z,74.10
2018-12-17T16:44:24.522Z,74.60
2018-12-17T16:47:25.050Z,74.60
2018-12-17T16:50:24.466Z,74.60
2018-12-17T16:53:24.638Z,74.60
2018-12-17T16:56:23.895Z,74.60
2018-12-17T16:59:30.254Z,74.60
2018-12-17T17:02:30.379Z,74.60
2018-12-17T17:05:36.347Z,74.60
2018-12-17T17:08:35.731Z,74.60
2018-12-17T17:11:35.200Z,74.70
2018-12-17T17:14:34.461Z,74.60
2018-12-17T17:17:38.165Z,74.60
2018-12-17T17:20:38.870Z,74.70
2018-12-17T17:23:38.124Z,74.70
2018-12-17T17:26:38.615Z,74.80
2018-12-17T17:29:37.898Z,74.80
2018-12-17T17:32:38.112Z,74.80
2018-12-17T17:35:37.364Z,74.80
2018-12-17T17:38:37.353Z,74.80
2018-12-17T17:41:36.678Z,74.80
2018-12-17T17:44:37.122Z,74.90
2018-12-17T17:47:36.469Z,74.90
2018-12-17T17:50:37.593Z,74.90
2018-12-17T17:53:37.598Z,74.90
2018-12-17T17:56:41.662Z,74.90
2018-12-17T17:59:41.206Z,74.90
2018-12-17T18:02:41.650Z,75.00
2018-12-17T18:05:41.144Z,75.00
2018-12-17T18:08:41.460Z,75.00
2018-12-17T18:11:42.001Z,75.00
2018-12-17T18:14:42.397Z,75.00
2018-12-17T18:17:42.374Z,75.00
2018-12-17T18:20:42.368Z,75.00
2018-12-17T18:23:42.690Z,75.10
2018-12-17T18:26:44.228Z,75.20
2018-12-17T18:29:43.514Z,75.10
2018-12-17T18:53:43.774Z,75.30
2018-12-17T18:56:43.260Z,75.30
2018-12-17T18:59:43.080Z,75.20
2018-12-17T19:02:44.779Z,75.30
2018-12-17T19:05:45.092Z,75.20
2018-12-17T19:26:36.606Z,75.50
2018-12-17T19:29:37.352Z,75.40
2018-12-17T19:32:40.374Z,75.50
2018-12-17T19:35:39.130Z,75.50
2018-12-17T19:53:05.166Z,75.60
2018-12-17T19:56:05.830Z,75.60
2018-12-17T19:59:05.303Z,75.70
2018-12-17T20:02:08.205Z,75.60
2018-12-17T20:05:07.911Z,75.60
2018-12-17T20:08:09.181Z,75.70
2018-12-17T20:11:09.458Z,75.70
2018-12-17T20:14:08.999Z,75.70
2018-12-17T20:17:09.755Z,75.70
2018-12-17T20:20:09.719Z,75.70
2018-12-17T20:23:12.785Z,75.80
2018-12-17T20:26:12.707Z,75.80
2018-12-17T20:29:14.109Z,75.80
2018-12-17T20:32:13.536Z,75.80
2018-12-17T20:35:20.751Z,75.80
2018-12-17T20:38:20.247Z,75.80
2018-12-17T20:41:26.468Z,75.90
2018-12-17T20:44:28.909Z,75.90
2018-12-17T20:47:28.379Z,76.00
2018-12-17T20:50:28.440Z,76.00
2018-12-17T20:53:28.780Z,76.00
2018-12-17T20:56:29.920Z,76.00
2018-12-17T20:59:29.211Z,76.00
2018-12-17T21:02:31.494Z,76.00
2018-12-17T21:05:30.929Z,76.10
2018-12-17T21:08:34.318Z,76.00
2018-12-17T21:11:33.759Z,76.10
2018-12-17T21:14:34.709Z,76.20
2018-12-17T21:17:34.244Z,76.10
2018-12-17T21:20:36.985Z,76.20
2018-12-17T21:23:36.404Z,76.20
2018-12-17T21:26:36.892Z,76.20
2018-12-17T21:29:36.246Z,76.20
2018-12-17T21:32:45.582Z,76.20
2018-12-17T21:35:46.062Z,76.20
2018-12-17T21:38:46.663Z,76.30
2018-12-17T21:41:53.813Z,76.20
2018-12-17T21:44:53.175Z,76.20
2018-12-17T21:47:54.743Z,76.20
2018-12-17T21:50:54.042Z,76.30
2018-12-17T21:53:54.455Z,76.40
2018-12-17T21:56:53.819Z,76.40
2018-12-17T21:59:56.768Z,76.40
2018-12-17T22:02:56.797Z,76.50
2018-12-17T22:06:05.143Z,76.40
2018-12-17T22:09:06.651Z,76.40
2018-12-17T22:12:08.713Z,76.40
2018-12-17T22:15:13.111Z,76.50
2018-12-17T22:18:13.166Z,76.50
2018-12-17T22:21:15.887Z,76.50
2018-12-17T22:24:18.307Z,76.50
2018-12-17T22:27:19.357Z,76.60
2018-12-17T22:30:22.418Z,76.60
2018-12-17T22:33:22.629Z,76.60
2018-12-17T22:36:21.862Z,76.60
2018-12-17T22:39:21.262Z,76.60
2018-12-17T22:42:22.171Z,76.60
2018-12-17T22:45:25.256Z,76.60
2018-12-17T22:48:25.726Z,76.50
2018-12-17T22:51:25.041Z,76.60
2018-12-17T22:54:30.953Z,76.60
2018-12-17T22:57:31.243Z,76.60
2018-12-17T23:00:35.927Z,76.60
2018-12-17T23:03:37.559Z,76.60
2018-12-17T23:06:36.982Z,76.50
2018-12-17T23:09:47.447Z,76.40
2018-12-17T23:12:57.887Z,76.50
2018-12-17T23:16:08.763Z,76.50
2018-12-17T23:19:07.911Z,77.30
2018-12-17T23:22:11.375Z,76.50
2018-12-17T23:25:14.646Z,76.50
2018-12-17T23:28:14.162Z,76.60
2018-12-17T23:31:13.728Z,76.60
2018-12-17T23:34:15.044Z,76.60
2018-12-17T23:37:14.423Z,76.60
2018-12-17T23:40:21.672Z,76.50
2018-12-17T23:43:21.135Z,76.50
2018-12-17T23:46:21.234Z,76.50
2018-12-17T23:49:21.129Z,76.50
2018-12-17T23:52:21.368Z,76.50
2018-12-17T23:55:20.911Z,76.40
2018-12-17T23:58:20.336Z,76.50
